createdAt,value
2023-03-19T01:01:05.081Z,24.83
2023-03-19T01:06:05.115Z,24.83
2023-03-19T01:07:05.103Z,24.82
2023-03-19T01:08:05.116Z,24.84
2023-03-19T01:16:05.200Z,24.83
2023-03-19T01:54:05.449Z,24.83
2023-03-19T01:55:05.480Z,24.83
2023-03-19T01:56:05.486Z,24.83
2023-03-19T01:57:05.539Z,24.84
2023-03-19T01:58:05.524Z,24.83
2023-03-19T01:59:05.564Z,24.83
2023-03-19T02:00:05.586Z,24.83
2023-03-19T02:01:05.558Z,24.83
2023-03-19T02:02:05.544Z,24.83
2023-03-19T02:03:05.528Z,24.83
2023-03-19T02:04:05.625Z,24.82
2023-03-19T02:05:05.557Z,24.83
2023-03-19T02:06:05.597Z,24.82
2023-03-19T02:07:05.578Z,24.82
2023-03-19T02:08:05.637Z,24.83
2023-03-19T02:09:05.634Z,24.82
2023-03-19T02:10:05.644Z,24.82
2023-03-19T02:11:05.679Z,24.83
2023-03-19T02:12:05.716Z,24.83
2023-03-19T02:13:05.762Z,24.82
2023-03-19T02:14:05.744Z,24.84
2023-03-19T02:15:05.960Z,24.83
2023-03-19T02:16:05.872Z,24.83
2023-03-19T02:17:05.810Z,24.82
2023-03-19T02:18:06.031Z,24.82
2023-03-19T02:19:05.868Z,24.82
2023-03-19T02:20:05.872Z,24.82
2023-03-19T02:21:05.940Z,24.82
2023-03-19T02:22:05.938Z,24.81
2023-03-19T02:23:05.931Z,24.81
2023-03-19T02:24:05.958Z,24.81
2023-03-19T02:25:05.957Z,24.80
2023-03-19T02:26:06.015Z,24.80
2023-03-19T02:27:05.972Z,24.81
2023-03-19T02:28:06.008Z,24.80
2023-03-19T02:29:06.040Z,24.81
2023-03-19T02:30:06.027Z,24.81
2023-03-19T02:31:06.172Z,24.81
2023-03-19T02:32:06.053Z,24.81
2023-03-19T02:33:06.047Z,24.81
2023-03-19T02:34:06.067Z,24.81
2023-03-19T02:35:06.076Z,24.81
2023-03-19T02:36:06.131Z,24.81
2023-03-19T02:37:06.090Z,24.81
2023-03-19T02:38:06.097Z,24.81
2023-03-19T02:39:06.059Z,24.82
2023-03-19T02:40:06.069Z,24.81
2023-03-19T02:41:06.104Z,24.81
2023-03-19T02:42:06.075Z,24.82
2023-03-19T02:43:06.095Z,24.80
2023-03-19T02:44:06.094Z,24.80
2023-03-19T02:45:06.095Z,24.80
2023-03-19T02:46:06.116Z,24.80
2023-03-19T02:47:06.116Z,24.80
2023-03-19T02:48:06.129Z,24.79
2023-03-19T02:49:06.123Z,24.80
2023-03-19T02:50:06.140Z,24.80
2023-03-19T02:51:06.189Z,24.79
2023-03-19T02:52:06.168Z,24.80
2023-03-19T02:53:06.150Z,24.80
2023-03-19T02:54:06.161Z,24.80
2023-03-19T02:55:06.170Z,24.80
2023-03-19T02:56:06.157Z,24.81
2023-03-19T02:57:06.154Z,24.80
2023-03-19T02:58:06.188Z,24.80
2023-03-19T02:59:06.154Z,24.81
2023-03-19T03:00:06.174Z,24.81
2023-03-19T03:01:06.321Z,24.81
2023-03-19T03:02:06.198Z,24.81
2023-03-19T03:03:06.174Z,24.82
2023-03-19T03:04:06.183Z,24.82
2023-03-19T03:05:06.189Z,24.82
2023-03-19T03:06:06.210Z,24.81
2023-03-19T03:07:06.209Z,24.81
2023-03-19T03:08:06.195Z,24.81
2023-03-19T03:09:06.199Z,24.82
2023-03-19T03:10:06.209Z,24.82
2023-03-19T03:11:06.189Z,24.82
2023-03-19T03:12:06.177Z,24.82
2023-03-19T03:13:06.200Z,24.82
2023-03-19T03:14:06.194Z,24.81
2023-03-19T03:15:06.205Z,24.81
2023-03-19T03:16:06.214Z,24.81
2023-03-19T03:17:06.201Z,24.82
2023-03-19T03:18:06.230Z,24.82
2023-03-19T03:19:06.159Z,24.81
2023-03-19T03:20:06.168Z,24.82
2023-03-19T03:21:06.179Z,24.81
2023-03-19T03:22:06.167Z,24.82
2023-03-19T03:23:06.162Z,24.82
2023-03-19T03:24:06.181Z,24.82
2023-03-19T03:25:06.158Z,24.83
2023-03-19T03:26:06.195Z,24.82
2023-03-19T03:27:06.171Z,24.81
2023-03-19T03:28:06.183Z,24.82
2023-03-19T03:29:06.182Z,24.81
2023-03-19T03:30:06.303Z,24.80
2023-03-19T03:31:06.186Z,24.81
2023-03-19T03:32:06.254Z,24.81
2023-03-19T03:33:06.165Z,24.80
2023-03-19T03:34:06.185Z,24.80
2023-03-19T03:35:06.178Z,24.80
2023-03-19T03:36:06.211Z,24.80
2023-03-19T03:37:06.202Z,24.81
2023-03-19T03:38:06.185Z,24.81
2023-03-19T03:39:06.204Z,24.81
2023-03-19T03:40:06.243Z,24.81
2023-03-19T03:41:06.273Z,24.81
2023-03-19T03:42:06.267Z,24.81
2023-03-19T03:43:06.245Z,24.81
2023-03-19T03:44:06.259Z,24.80
2023-03-19T03:45:06.280Z,24.80
2023-03-19T03:46:06.321Z,24.81
2023-03-19T03:47:06.242Z,24.81
2023-03-19T03:48:06.252Z,24.81
2023-03-19T03:49:06.320Z,24.81
2023-03-19T03:50:06.303Z,24.81
2023-03-19T03:51:06.310Z,24.81
2023-03-19T03:52:06.316Z,24.80
2023-03-19T03:53:06.315Z,24.81
2023-03-19T03:54:06.352Z,24.81
2023-03-19T03:55:06.349Z,24.81
2023-03-19T03:56:06.371Z,24.81
2023-03-19T03:57:06.362Z,24.81
2023-03-19T03:58:06.330Z,24.81
2023-03-19T03:59:06.339Z,24.81
2023-03-19T04:00:06.360Z,24.81
2023-03-19T04:01:06.368Z,24.81
2023-03-19T04:02:06.396Z,24.81
2023-03-19T04:03:06.394Z,24.81
2023-03-19T04:04:06.380Z,24.81
2023-03-19T04:05:06.372Z,24.80
2023-03-19T04:06:06.385Z,24.81
2023-03-19T04:07:06.354Z,24.80
2023-03-19T04:08:06.421Z,24.81
2023-03-19T04:09:06.365Z,24.81
2023-03-19T04:10:06.419Z,24.81
2023-03-19T04:11:06.439Z,24.81
2023-03-19T04:12:06.430Z,24.81
2023-03-19T04:13:06.428Z,24.81
2023-03-19T04:14:06.450Z,24.81
2023-03-19T04:15:06.440Z,24.81
2023-03-19T04:16:06.455Z,24.80
2023-03-19T04:17:06.454Z,24.81
2023-03-19T04:18:06.484Z,24.81
2023-03-19T04:19:06.472Z,24.81
2023-03-19T04:20:06.481Z,24.80
2023-03-19T04:21:06.500Z,24.81
2023-03-19T04:22:06.492Z,24.80
2023-03-19T04:23:06.507Z,24.81
2023-03-19T04:24:06.496Z,24.81
2023-03-19T04:25:06.564Z,24.81
2023-03-19T04:26:06.522Z,24.81
2023-03-19T04:27:06.524Z,24.81
2023-03-19T04:28:06.533Z,24.81
2023-03-19T04:29:06.540Z,24.81
2023-03-19T04:30:06.550Z,24.81
2023-03-19T04:31:06.597Z,24.81
2023-03-19T04:32:06.563Z,24.81
2023-03-19T05:59:07.075Z,24.84
2023-03-19T06:00:07.042Z,24.84
2023-03-19T06:01:07.051Z,24.85
2023-03-19T06:02:07.040Z,24.84
2023-03-19T06:03:07.063Z,24.84
2023-03-19T06:04:07.095Z,24.84
2023-03-19T06:05:07.041Z,24.84
2023-03-19T06:06:07.094Z,24.84
2023-03-19T06:07:07.035Z,24.84
2023-03-19T06:08:07.064Z,24.85
2023-03-19T06:09:07.087Z,24.85
2023-03-19T06:10:07.056Z,24.85
2023-03-19T06:11:07.067Z,24.85
2023-03-19T06:12:07.058Z,24.85
2023-03-19T06:13:07.072Z,24.87
2023-03-19T06:14:07.076Z,24.87
2023-03-19T06:15:07.055Z,24.87
2023-03-19T06:16:07.145Z,24.88
2023-03-19T06:17:07.075Z,24.88
2023-03-19T06:18:07.066Z,24.88
2023-03-19T06:19:07.082Z,24.87
2023-03-19T06:20:07.153Z,24.88
2023-03-19T06:21:07.077Z,24.88
2023-03-19T06:22:07.098Z,24.88
2023-03-19T06:23:07.114Z,24.88
2023-03-19T06:24:07.090Z,24.89
2023-03-19T06:25:07.081Z,24.88
2023-03-19T06:26:07.137Z,24.88
2023-03-19T06:27:07.069Z,24.89
2023-03-19T06:28:07.074Z,24.88
2023-03-19T06:29:07.228Z,24.88
2023-03-19T06:30:07.088Z,24.89
2023-03-19T06:31:07.178Z,24.89
2023-03-19T06:32:07.081Z,24.90
2023-03-19T06:33:07.160Z,24.90
2023-03-19T06:34:07.086Z,24.90
2023-03-19T06:35:07.118Z,24.91
2023-03-19T06:36:07.099Z,24.91
2023-03-19T06:37:07.105Z,24.91
2023-03-19T06:38:07.081Z,24.91
2023-03-19T06:39:07.084Z,24.91
2023-03-19T06:40:07.083Z,24.92
2023-03-19T06:41:07.126Z,24.92
2023-03-19T06:42:07.134Z,24.92
2023-03-19T06:43:07.122Z,24.93
2023-03-19T06:44:07.123Z,24.93
2023-03-19T06:45:07.123Z,24.93
2023-03-19T06:46:08.877Z,24.93
2023-03-19T06:47:07.099Z,24.93
2023-03-19T06:48:07.077Z,24.93
2023-03-19T06:49:07.029Z,24.93
2023-03-19T06:50:07.035Z,24.94
2023-03-19T06:51:07.052Z,24.94
2023-03-19T06:52:07.011Z,24.94
2023-03-19T06:53:06.991Z,24.93
2023-03-19T06:54:06.966Z,24.94
2023-03-19T06:55:07.182Z,24.94
2023-03-19T06:56:06.946Z,24.94
2023-03-19T06:57:06.945Z,24.94
2023-03-19T06:58:06.927Z,24.94
2023-03-19T06:59:06.926Z,24.95
2023-03-19T07:00:06.888Z,24.95
2023-03-19T07:01:07.018Z,24.95
2023-03-19T07:02:08.982Z,24.95
2023-03-19T07:03:06.811Z,24.94
2023-03-19T07:04:06.833Z,24.95
2023-03-19T07:05:06.736Z,24.95
2023-03-19T07:06:06.717Z,24.96
2023-03-19T07:07:06.708Z,24.96
2023-03-19T07:08:06.727Z,24.96
2023-03-19T07:09:06.690Z,24.97
2023-03-19T07:10:06.695Z,24.97
2023-03-19T07:11:06.678Z,24.97
2023-03-19T07:12:06.654Z,24.97
2023-03-19T07:13:06.605Z,24.97
2023-03-19T07:14:06.606Z,24.97
2023-03-19T07:15:06.615Z,24.97
2023-03-19T07:16:06.638Z,24.97
2023-03-19T07:17:08.050Z,24.98
2023-03-19T07:18:06.612Z,24.99
2023-03-19T07:19:06.658Z,24.99
2023-03-19T07:20:06.604Z,24.99
2023-03-19T07:21:06.639Z,25.01
2023-03-19T07:22:06.617Z,25.00
2023-03-19T07:23:06.614Z,25.00
2023-03-19T07:24:06.615Z,25.01
2023-03-19T07:25:06.610Z,25.01
2023-03-19T07:26:06.621Z,25.01
2023-03-19T07:27:06.603Z,25.02
2023-03-19T07:28:06.593Z,25.02
2023-03-19T07:29:06.579Z,25.02
2023-03-19T07:30:06.607Z,25.02
2023-03-19T07:31:06.602Z,25.03
2023-03-19T07:32:06.582Z,25.03
2023-03-19T07:33:06.580Z,25.04
2023-03-19T07:34:06.571Z,25.04
2023-03-19T07:35:06.606Z,25.04
2023-03-19T07:36:06.649Z,25.04
2023-03-19T07:37:06.609Z,25.05
2023-03-19T07:38:06.610Z,25.04
2023-03-19T07:39:06.627Z,25.04
2023-03-19T07:40:06.694Z,25.05
2023-03-19T07:41:06.675Z,25.05
2023-03-19T07:42:06.668Z,25.05
2023-03-19T07:43:06.694Z,25.05
2023-03-19T07:44:06.680Z,25.06
2023-03-19T07:45:06.665Z,25.07
2023-03-19T07:46:06.755Z,25.07
2023-03-19T07:47:08.201Z,25.08
2023-03-19T07:48:07.610Z,25.08
2023-03-19T07:49:06.560Z,25.09
2023-03-19T07:50:06.610Z,25.09
2023-03-19T07:51:06.530Z,25.10
2023-03-19T07:52:06.464Z,25.10
2023-03-19T07:53:06.463Z,25.10
2023-03-19T07:54:06.461Z,25.09
2023-03-19T07:55:06.417Z,25.11
2023-03-19T07:56:06.377Z,25.11
2023-03-19T07:57:06.335Z,25.11
2023-03-19T07:58:06.297Z,25.11
2023-03-19T07:59:06.322Z,25.11
2023-03-19T08:00:06.220Z,25.11
2023-03-19T08:01:06.209Z,25.12
2023-03-19T08:02:06.235Z,25.12
2023-03-19T08:03:06.174Z,25.12
2023-03-19T08:04:06.253Z,25.12
2023-03-19T08:05:06.102Z,25.11
2023-03-19T08:06:06.061Z,25.12
2023-03-19T08:07:06.057Z,25.12
2023-03-19T08:08:06.061Z,25.12
2023-03-19T08:09:05.987Z,25.12
2023-03-19T08:10:05.957Z,25.13
2023-03-19T08:11:05.995Z,25.12
2023-03-19T08:12:05.965Z,25.13
2023-03-19T08:13:05.935Z,25.14
2023-03-19T08:14:05.927Z,25.14
2023-03-19T08:15:05.936Z,25.13
2023-03-19T08:16:05.923Z,25.13
2023-03-19T08:17:06.056Z,25.13
2023-03-19T08:18:05.918Z,25.14
2023-03-19T08:19:05.940Z,25.15
2023-03-19T08:20:05.909Z,25.16
2023-03-19T08:21:05.908Z,25.16
2023-03-19T08:22:05.866Z,25.16
2023-03-19T08:23:05.859Z,25.16
2023-03-19T08:24:05.829Z,25.16
2023-03-19T08:25:05.856Z,25.16
2023-03-19T08:26:05.864Z,25.16
2023-03-19T08:27:05.831Z,25.16
2023-03-19T08:28:05.801Z,25.17
2023-03-19T08:29:05.800Z,25.17
2023-03-19T08:30:05.801Z,25.17
2023-03-19T08:31:05.803Z,25.18
2023-03-19T08:32:05.776Z,25.17
2023-03-19T08:33:05.796Z,25.17
2023-03-19T08:34:05.729Z,25.17
2023-03-19T08:35:05.715Z,25.18
2023-03-19T08:36:05.771Z,25.18
2023-03-19T08:37:05.723Z,25.19
2023-03-19T08:38:05.735Z,25.19
2023-03-19T08:39:05.685Z,25.19
2023-03-19T08:40:05.707Z,25.19
2023-03-19T08:41:05.679Z,25.18
2023-03-19T08:42:05.771Z,25.18
2023-03-19T08:43:05.688Z,25.17
2023-03-19T08:44:05.658Z,25.18
2023-03-19T08:45:05.647Z,25.19
2023-03-19T08:46:05.703Z,25.18
2023-03-19T08:47:05.658Z,25.18
2023-03-19T08:48:05.756Z,25.18
2023-03-19T08:49:05.634Z,25.18
2023-03-19T08:50:05.640Z,25.18
2023-03-19T08:51:05.609Z,25.18
2023-03-19T08:52:05.606Z,25.19
2023-03-19T08:53:05.609Z,25.20
2023-03-19T08:54:05.629Z,25.20
2023-03-19T08:55:05.599Z,25.20
2023-03-19T08:56:05.610Z,25.21
2023-03-19T08:57:05.640Z,25.20
2023-03-19T08:58:05.592Z,25.20
2023-03-19T08:59:05.651Z,25.19
2023-03-19T09:00:05.609Z,25.20
2023-03-19T09:01:05.635Z,25.20
2023-03-19T09:02:05.706Z,25.20
2023-03-19T09:03:05.648Z,25.20
2023-03-19T09:04:05.665Z,25.20
2023-03-19T09:05:05.695Z,25.20
2023-03-19T09:06:05.697Z,25.20
2023-03-19T09:07:05.661Z,25.20
2023-03-19T09:08:05.664Z,25.20
2023-03-19T09:09:05.665Z,25.20
2023-03-19T09:10:05.661Z,25.20
2023-03-19T09:11:05.729Z,25.20
2023-03-19T09:12:05.649Z,25.21
2023-03-19T09:13:05.682Z,25.20
2023-03-19T09:14:05.606Z,25.21
2023-03-19T09:15:05.642Z,25.21
2023-03-19T09:16:05.689Z,25.19
2023-03-19T09:17:05.611Z,25.18
2023-03-19T09:18:05.623Z,25.19
2023-03-19T09:19:05.620Z,25.20
2023-03-19T09:20:05.584Z,25.20
2023-03-19T09:21:05.595Z,25.21
2023-03-19T09:22:05.600Z,25.21
2023-03-19T09:23:05.590Z,25.22
2023-03-19T09:24:05.626Z,25.22
2023-03-19T09:25:05.642Z,25.23
2023-03-19T09:26:05.627Z,25.23
2023-03-19T09:27:05.648Z,25.22
2023-03-19T09:28:05.617Z,25.23
2023-03-19T09:29:05.627Z,25.23
2023-03-19T09:30:05.576Z,25.23
2023-03-19T09:31:05.605Z,25.23
2023-03-19T09:32:05.591Z,25.23
2023-03-19T09:33:05.597Z,25.24
2023-03-19T09:34:05.551Z,25.23
2023-03-19T09:35:05.511Z,25.24
2023-03-19T09:36:05.562Z,25.24
2023-03-19T09:37:05.578Z,25.24
2023-03-19T09:38:05.562Z,25.25
2023-03-19T09:39:05.518Z,25.23
2023-03-19T09:40:05.575Z,25.23
2023-03-19T09:41:05.519Z,25.22
2023-03-19T09:42:05.499Z,25.23
2023-03-19T09:43:05.548Z,25.23
2023-03-19T09:44:05.490Z,25.23
2023-03-19T09:45:05.464Z,25.23
2023-03-19T09:46:05.489Z,25.23
2023-03-19T09:47:05.599Z,25.23
2023-03-19T09:48:05.541Z,25.23
2023-03-19T09:49:05.476Z,25.23
2023-03-19T09:50:05.451Z,25.23
2023-03-19T09:51:05.503Z,25.23
2023-03-19T09:52:06.830Z,25.24
2023-03-19T09:53:05.433Z,25.24
2023-03-19T09:54:05.456Z,25.24
2023-03-19T09:55:05.419Z,25.24
2023-03-19T09:56:05.370Z,25.24
2023-03-19T09:57:05.373Z,25.25
2023-03-19T09:58:05.354Z,25.25
2023-03-19T09:59:05.308Z,25.25
2023-03-19T10:00:05.288Z,25.25
2023-03-19T10:01:05.260Z,25.25
2023-03-19T10:02:05.239Z,25.26
2023-03-19T10:03:05.531Z,25.25
2023-03-19T10:04:05.227Z,25.26
2023-03-19T10:05:05.199Z,25.26
2023-03-19T10:06:05.121Z,25.27
2023-03-19T10:07:05.089Z,25.27
2023-03-19T10:08:05.102Z,25.26
2023-03-19T10:09:05.028Z,25.27
2023-03-19T10:10:05.002Z,25.27
2023-03-19T10:11:04.969Z,25.27
2023-03-19T10:12:04.982Z,25.26
2023-03-19T10:13:05.029Z,25.27
2023-03-19T10:14:04.958Z,25.27
2023-03-19T10:15:04.963Z,25.28
2023-03-19T10:16:04.857Z,25.27
2023-03-19T10:17:04.857Z,25.28
2023-03-19T10:18:04.783Z,25.28
2023-03-19T10:19:04.766Z,25.27
2023-03-19T10:20:04.754Z,25.27
2023-03-19T10:21:04.722Z,25.28
2023-03-19T10:22:04.728Z,25.27
2023-03-19T10:23:04.647Z,25.28
2023-03-19T10:24:04.662Z,25.28
2023-03-19T10:25:05.128Z,25.29
2023-03-19T10:26:04.594Z,25.29
2023-03-19T10:27:04.579Z,25.29
2023-03-19T10:28:04.538Z,25.29
2023-03-19T10:29:04.502Z,25.29
2023-03-19T10:30:04.466Z,25.30
2023-03-19T10:31:04.451Z,25.30
2023-03-19T10:32:04.411Z,25.31
2023-03-19T10:33:04.406Z,25.31
2023-03-19T10:34:04.350Z,25.31
2023-03-19T10:35:04.330Z,25.32
2023-03-19T10:36:04.287Z,25.31
2023-03-19T10:37:04.243Z,25.32
2023-03-19T10:38:04.212Z,25.31
2023-03-19T10:39:04.199Z,25.32
2023-03-19T10:40:04.160Z,25.32
2023-03-19T10:41:04.123Z,25.32
2023-03-19T10:42:04.091Z,25.32
2023-03-19T10:43:04.042Z,25.34
2023-03-19T10:44:04.009Z,25.34
2023-03-19T10:45:03.994Z,25.33
2023-03-19T10:46:04.063Z,25.34
2023-03-19T10:47:03.916Z,25.35
2023-03-19T10:48:04.044Z,25.34
2023-03-19T10:49:03.840Z,25.33
2023-03-19T10:50:03.800Z,25.34
2023-03-19T10:51:03.839Z,25.34
2023-03-19T10:52:03.758Z,25.34
2023-03-19T10:53:03.745Z,25.33
2023-03-19T10:54:03.720Z,25.33
2023-03-19T10:55:03.671Z,25.34
2023-03-19T10:56:03.645Z,25.34
2023-03-19T10:57:03.622Z,25.35
2023-03-19T10:58:03.570Z,25.35
2023-03-19T10:59:03.565Z,25.35
2023-03-19T11:00:03.500Z,25.36
2023-03-19T11:01:03.527Z,25.36
2023-03-19T11:02:03.429Z,25.36
2023-03-19T11:03:03.387Z,25.36
2023-03-19T11:04:03.455Z,25.37
2023-03-19T11:05:03.323Z,25.36
2023-03-19T11:06:03.339Z,25.34
2023-03-19T11:07:03.298Z,25.34
2023-03-19T11:08:03.239Z,25.34
2023-03-19T11:09:03.253Z,25.34
2023-03-19T11:10:03.301Z,25.34
2023-03-19T11:11:03.317Z,25.33
2023-03-19T11:12:03.319Z,25.34
2023-03-19T11:13:03.321Z,25.33
2023-03-19T11:14:03.334Z,25.35
2023-03-19T11:15:03.297Z,25.35
2023-03-19T11:16:03.270Z,25.36
2023-03-19T11:17:04.703Z,25.36
2023-03-19T11:18:03.279Z,25.37
2023-03-19T11:19:03.318Z,25.37
2023-03-19T11:20:03.326Z,25.37
2023-03-19T11:21:03.327Z,25.37
2023-03-19T11:22:03.339Z,25.37
2023-03-19T11:23:03.314Z,25.37
2023-03-19T11:24:03.310Z,25.36
2023-03-19T11:25:03.327Z,25.37
2023-03-19T11:26:03.293Z,25.37
2023-03-19T11:27:03.319Z,25.36
2023-03-19T11:28:03.316Z,25.37
2023-03-19T11:29:03.328Z,25.37
2023-03-19T11:30:03.289Z,25.37
2023-03-19T11:31:03.326Z,25.37
2023-03-19T11:32:18.716Z,25.38
2023-03-19T11:33:04.283Z,25.37
2023-03-19T11:34:03.208Z,25.38
2023-03-19T11:35:03.214Z,25.38
2023-03-19T11:36:03.223Z,25.38
2023-03-19T11:37:03.148Z,25.39
2023-03-19T11:38:03.124Z,25.39
2023-03-19T11:39:03.066Z,25.39
2023-03-19T11:40:03.021Z,25.39
2023-03-19T11:41:03.009Z,25.39
2023-03-19T11:42:02.980Z,25.41
2023-03-19T11:43:02.938Z,25.41
2023-03-19T11:44:02.947Z,25.41
2023-03-19T13:18:03.479Z,25.50
2023-03-19T13:41:02.948Z,25.47
2023-03-19T13:42:02.960Z,25.47
2023-03-19T13:43:02.985Z,25.47
2023-03-19T13:44:02.986Z,25.46
2023-03-19T13:45:03.977Z,25.46
2023-03-19T13:46:03.028Z,25.46
2023-03-19T13:47:03.068Z,25.45
2023-03-19T13:48:11.265Z,25.45
2023-03-19T13:50:03.002Z,25.44
2023-03-19T13:51:03.006Z,25.45
2023-03-19T13:52:02.955Z,25.44
2023-03-19T13:53:02.932Z,25.44
2023-03-19T13:54:02.946Z,25.45
2023-03-19T14:17:02.955Z,25.42
2023-03-19T14:18:02.969Z,25.42
2023-03-19T14:19:02.959Z,25.40
2023-03-19T14:20:07.421Z,25.41
2023-03-19T14:21:07.037Z,25.41
2023-03-19T14:22:05.985Z,25.40
2023-03-19T14:54:02.989Z,25.32
2023-03-19T21:45:02.880Z,24.74
2023-03-19T21:46:17.567Z,24.74
2023-03-19T21:47:03.992Z,24.73
2023-03-19T22:15:02.899Z,24.72
2023-03-19T22:16:02.957Z,24.71
2023-03-19T22:17:02.925Z,24.71
2023-03-19T22:18:02.933Z,24.71
2023-03-19T22:19:02.935Z,24.71
2023-03-19T22:20:02.975Z,24.70
2023-03-19T22:21:03.012Z,24.71
2023-03-19T22:22:02.978Z,24.70
2023-03-19T22:23:03.035Z,24.70
2023-03-19T22:24:03.098Z,24.70
2023-03-19T22:25:03.086Z,24.71
2023-03-19T22:26:03.101Z,24.71
2023-03-19T22:27:03.085Z,24.71
2023-03-19T22:28:03.132Z,24.71
2023-03-19T22:29:03.161Z,24.71
2023-03-19T22:30:03.248Z,24.71
2023-03-19T22:31:03.140Z,24.71
2023-03-19T22:32:03.191Z,24.71
2023-03-19T22:33:03.173Z,24.71
2023-03-19T22:34:03.222Z,24.71
2023-03-19T22:35:04.771Z,24.71
2023-03-19T22:36:03.253Z,24.71
2023-03-19T22:37:03.271Z,24.71
2023-03-19T22:38:03.269Z,24.71
2023-03-19T22:39:03.306Z,24.70
2023-03-19T22:40:03.326Z,24.70
2023-03-19T22:41:03.364Z,24.70
2023-03-19T22:42:03.373Z,24.70
2023-03-19T22:43:03.371Z,24.70
2023-03-19T22:44:03.390Z,24.70
2023-03-19T22:45:03.418Z,24.70
2023-03-19T22:46:03.482Z,24.70
2023-03-19T22:47:03.439Z,24.70
2023-03-19T22:48:03.452Z,24.70
2023-03-19T22:49:03.469Z,24.71
2023-03-19T22:50:03.527Z,24.70
2023-03-19T22:51:03.524Z,24.71
2023-03-19T22:52:03.556Z,24.71
2023-03-19T22:53:03.558Z,24.70
2023-03-19T22:54:03.593Z,24.71
2023-03-19T22:55:03.631Z,24.70
2023-03-19T22:56:03.616Z,24.70
2023-03-19T22:57:03.631Z,24.70
2023-03-19T22:58:03.680Z,24.71
2023-03-19T22:59:03.718Z,24.70
2023-03-19T23:00:03.755Z,24.70
2023-03-19T23:01:03.838Z,24.70
2023-03-19T23:02:03.756Z,24.69
2023-03-19T23:03:03.791Z,24.69
2023-03-19T23:04:03.814Z,24.68
2023-03-19T23:05:03.830Z,24.68
2023-03-19T23:06:03.938Z,24.69
2023-03-19T23:07:03.908Z,24.68
2023-03-19T23:08:06.037Z,24.68
2023-03-19T23:09:03.986Z,24.67
2023-03-19T23:10:04.038Z,24.67
2023-03-19T23:11:04.019Z,24.68
2023-03-19T23:12:04.066Z,24.67
2023-03-19T23:13:04.088Z,24.68
2023-03-19T23:17:04.196Z,24.67
2023-03-19T23:18:04.236Z,24.67
2023-03-19T23:19:04.250Z,24.67
2023-03-19T23:59:05.241Z,24.65
